createdAt,value
2023-05-20T00:00:38.719Z,3.42
2023-05-20T00:06:02.606Z,2.90
2023-05-20T00:11:25.036Z,3.00
2023-05-20T00:16:47.310Z,3.22
2023-05-20T00:22:09.632Z,2.92
2023-05-20T00:27:32.045Z,3.15
2023-05-20T00:32:54.485Z,3.27
2023-05-20T00:38:16.768Z,3.33
2023-05-20T00:43:39.067Z,3.70
2023-05-20T00:49:03.735Z,3.05
2023-05-20T00:54:26.301Z,2.85
2023-05-20T00:59:49.180Z,2.90
2023-05-20T01:05:12.508Z,2.92
2023-05-20T01:10:36.744Z,3.12
2023-05-20T01:16:01.775Z,2.95
2023-05-20T01:21:24.905Z,2.85
2023-05-20T01:26:48.789Z,3.27
2023-05-20T01:32:14.977Z,2.95
2023-05-20T01:37:40.662Z,2.98
2023-05-20T01:43:04.794Z,2.45
2023-05-20T01:48:28.725Z,2.75
2023-05-20T01:53:51.309Z,2.80
2023-05-20T01:59:14.165Z,2.75
2023-05-20T02:04:36.778Z,2.80
2023-05-20T02:10:00.020Z,2.58
2023-05-20T02:15:22.824Z,2.58
2023-05-20T02:20:47.103Z,2.75
2023-05-20T02:26:10.630Z,2.30
2023-05-20T02:31:33.043Z,2.58
2023-05-20T02:36:55.326Z,2.60
2023-05-20T02:42:18.959Z,2.77
2023-05-20T02:47:41.340Z,2.60
2023-05-20T02:53:03.810Z,2.62
2023-05-20T02:58:26.797Z,3.42
2023-05-20T03:03:49.447Z,2.80
2023-05-20T03:09:11.888Z,2.60
2023-05-20T03:14:34.234Z,2.72
2023-05-20T03:19:56.601Z,3.05
2023-05-20T03:25:19.235Z,2.47
2023-05-20T03:30:42.143Z,2.92
2023-05-20T03:36:04.515Z,2.40
2023-05-20T03:41:26.871Z,2.80
2023-05-20T03:46:49.210Z,3.17
2023-05-20T03:52:11.605Z,2.60
2023-05-20T03:57:34.243Z,2.50
2023-05-20T04:02:56.739Z,2.47
2023-05-20T04:08:19.553Z,2.55
2023-05-20T04:13:43.813Z,2.25
2023-05-20T04:19:06.220Z,2.62
2023-05-20T04:24:28.543Z,2.27
2023-05-20T04:29:50.838Z,2.47
2023-05-20T04:35:14.209Z,3.00
2023-05-20T04:40:36.674Z,2.33
2023-05-20T04:46:00.208Z,2.62
2023-05-20T04:51:23.064Z,2.30
2023-05-20T04:56:46.547Z,2.40
2023-05-20T05:02:09.028Z,2.55
2023-05-20T05:07:31.404Z,2.30
2023-05-20T05:12:53.736Z,2.27
2023-05-20T05:18:17.734Z,2.55
2023-05-20T05:23:40.130Z,2.33
2023-05-20T05:29:02.395Z,2.35
2023-05-20T05:34:24.832Z,2.50
2023-05-20T05:39:47.178Z,2.52
2023-05-20T05:45:10.116Z,2.27
2023-05-20T05:50:32.604Z,2.50
2023-05-20T05:55:55.467Z,2.75
2023-05-20T06:01:17.804Z,2.75
2023-05-20T06:06:40.237Z,2.83
2023-05-20T06:12:03.227Z,2.62
2023-05-20T06:17:26.164Z,2.52
2023-05-20T06:22:49.141Z,3.00
2023-05-20T06:28:12.915Z,2.40
2023-05-20T06:33:36.969Z,2.42
2023-05-20T06:38:59.970Z,2.60
2023-05-20T06:44:23.048Z,2.45
2023-05-20T06:49:47.537Z,2.83
2023-05-20T06:55:10.412Z,3.30
2023-05-20T07:00:32.820Z,2.50
2023-05-20T07:05:55.517Z,2.80
2023-05-20T07:11:17.800Z,2.72
2023-05-20T07:16:40.807Z,2.47
2023-05-20T07:22:03.642Z,2.80
2023-05-20T07:27:25.929Z,2.87
2023-05-20T07:32:48.283Z,3.20
2023-05-20T07:38:11.233Z,3.10
2023-05-20T07:43:33.631Z,3.42
2023-05-20T07:48:55.925Z,3.40
2023-05-20T07:54:18.725Z,3.02
2023-05-20T07:59:41.467Z,3.65
2023-05-20T08:05:05.210Z,3.40
2023-05-20T08:10:28.347Z,3.17
2023-05-20T08:15:51.174Z,3.70
2023-05-20T08:21:14.625Z,3.27
2023-05-20T08:26:36.993Z,4.72
2023-05-20T08:31:59.626Z,3.27
2023-05-20T08:37:22.330Z,3.42
2023-05-20T08:42:47.262Z,3.33
2023-05-20T08:48:11.170Z,3.27
2023-05-20T08:53:36.307Z,3.58
2023-05-20T08:58:59.436Z,3.90
2023-05-20T09:04:23.044Z,3.72
2023-05-20T09:09:47.478Z,4.25
2023-05-20T09:15:10.718Z,3.83
2023-05-20T09:20:35.134Z,4.20
2023-05-20T09:25:58.678Z,4.03
2023-05-20T09:31:22.840Z,3.80
2023-05-20T09:36:49.378Z,3.65
2023-05-20T09:42:20.890Z,3.72
2023-05-20T09:47:45.553Z,4.00
2023-05-20T09:53:10.333Z,4.00
2023-05-20T09:58:36.911Z,4.08
2023-05-20T10:04:03.508Z,4.08
2023-05-20T10:09:42.238Z,4.25
2023-05-20T10:15:26.610Z,3.98
2023-05-20T10:21:01.735Z,3.60
2023-05-20T10:26:27.015Z,4.40
2023-05-20T10:31:52.678Z,3.90
2023-05-20T10:37:20.192Z,4.50
2023-05-20T10:42:49.959Z,4.30
2023-05-20T10:48:15.275Z,4.42
2023-05-20T10:53:47.052Z,4.90
2023-05-20T10:59:10.830Z,5.00
2023-05-20T11:04:35.204Z,5.00
2023-05-20T11:10:04.463Z,5.78
2023-05-20T11:15:29.335Z,4.45
2023-05-20T11:20:54.561Z,5.33
2023-05-20T11:26:18.454Z,4.72
2023-05-20T11:31:41.150Z,5.65
2023-05-20T11:37:11.908Z,6.35
2023-05-20T11:42:34.955Z,6.12
2023-05-20T11:48:08.287Z,6.25
2023-05-20T11:53:38.924Z,5.62
2023-05-20T11:59:06.886Z,6.05
2023-05-20T12:04:29.329Z,5.22
2023-05-20T12:09:51.969Z,6.47
2023-05-20T12:15:14.681Z,5.85
2023-05-20T12:20:38.752Z,6.00
2023-05-20T12:26:01.561Z,5.47
2023-05-20T12:31:23.992Z,6.22
2023-05-20T12:36:46.652Z,5.70
2023-05-20T12:42:09.351Z,5.75
2023-05-20T12:47:33.352Z,5.35
2023-05-20T12:52:55.937Z,4.62
2023-05-20T12:58:18.479Z,4.83
2023-05-20T13:03:40.997Z,5.95
2023-05-20T13:09:03.356Z,5.20
2023-05-20T13:14:26.279Z,10.23
2023-05-20T13:19:49.405Z,5.50
2023-05-20T13:25:12.396Z,5.50
2023-05-20T13:30:35.154Z,4.65
2023-05-20T13:35:57.718Z,4.83
2023-05-20T13:41:20.094Z,5.35
2023-05-20T13:46:42.614Z,5.33
2023-05-20T13:52:05.630Z,4.53
2023-05-20T13:57:28.354Z,4.75
2023-05-20T14:02:50.857Z,5.80
2023-05-20T14:08:13.754Z,5.65
2023-05-20T14:13:36.821Z,5.50
2023-05-20T14:18:59.337Z,5.62
2023-05-20T14:24:23.825Z,5.50
2023-05-20T14:29:46.484Z,6.15
2023-05-20T14:35:08.787Z,6.03
2023-05-20T14:40:31.419Z,6.17
2023-05-20T14:45:53.827Z,5.60
2023-05-20T14:51:16.158Z,5.22
2023-05-20T14:56:38.532Z,5.78
2023-05-20T15:02:01.513Z,5.58
2023-05-20T15:07:24.614Z,5.25
2023-05-20T15:12:46.981Z,5.20
2023-05-20T15:18:09.821Z,5.10
2023-05-20T15:23:32.308Z,4.75
2023-05-20T15:28:54.613Z,4.22
2023-05-20T15:34:17.053Z,4.60
2023-05-20T15:39:39.767Z,4.47
2023-05-20T15:45:02.237Z,4.92
2023-05-20T15:50:25.063Z,3.58
2023-05-20T15:55:47.613Z,4.10
2023-05-20T16:01:11.480Z,4.33
2023-05-20T16:06:34.561Z,4.20
2023-05-20T16:11:56.824Z,4.37
2023-05-20T16:17:20.789Z,4.30
2023-05-20T16:22:43.063Z,4.12
2023-05-20T16:28:05.425Z,4.42
2023-05-20T16:33:27.789Z,4.10
2023-05-20T16:38:50.089Z,3.77
2023-05-20T16:44:12.400Z,3.65
2023-05-20T16:49:34.991Z,4.35
2023-05-20T16:54:59.019Z,3.62
2023-05-20T17:00:22.701Z,4.17
2023-05-20T17:05:45.199Z,4.15
2023-05-20T17:11:07.674Z,4.40
2023-05-20T17:16:30.137Z,4.30
2023-05-20T17:21:52.624Z,3.85
2023-05-20T17:27:15.741Z,4.20
2023-05-20T17:32:38.983Z,3.83
2023-05-20T17:38:01.440Z,3.75
2023-05-20T17:43:25.609Z,3.95
2023-05-20T17:48:48.004Z,4.22
2023-05-20T17:54:10.445Z,3.92
2023-05-20T17:59:34.348Z,3.77
2023-05-20T18:04:56.752Z,3.90
2023-05-20T18:10:19.413Z,4.00
2023-05-20T18:15:41.747Z,4.22
2023-05-20T18:21:05.777Z,4.40
2023-05-20T18:26:28.484Z,4.00
2023-05-20T18:31:52.058Z,4.42
2023-05-20T18:37:15.012Z,4.80
2023-05-20T18:42:37.478Z,4.30
2023-05-20T18:48:01.123Z,4.70
2023-05-20T18:53:24.014Z,3.95
2023-05-20T18:58:46.561Z,4.17
2023-05-20T19:04:09.254Z,4.47
2023-05-20T19:09:33.494Z,7.22
2023-05-20T19:14:56.302Z,4.53
2023-05-20T19:20:19.856Z,4.33
2023-05-20T19:25:43.232Z,4.40
2023-05-20T19:31:06.449Z,4.40
2023-05-20T19:36:29.481Z,4.83
2023-05-20T19:41:53.499Z,4.72
2023-05-20T19:47:16.308Z,4.37
2023-05-20T19:52:39.311Z,5.20
2023-05-20T19:58:01.707Z,5.05
2023-05-20T20:03:25.507Z,5.78
2023-05-20T20:08:48.016Z,5.15
2023-05-20T20:14:10.283Z,5.28
2023-05-20T20:19:32.640Z,5.12
2023-05-20T20:24:55.150Z,5.22
2023-05-20T20:30:18.712Z,5.55
2023-05-20T20:35:41.409Z,6.00
2023-05-20T20:41:04.122Z,5.40
2023-05-20T20:46:38.114Z,5.30
2023-05-20T20:52:02.364Z,5.42
2023-05-20T20:57:26.282Z,5.20
2023-05-20T21:02:48.721Z,5.05
2023-05-20T21:08:13.417Z,5.90
2023-05-20T21:13:38.844Z,5.28
2023-05-20T21:19:01.285Z,5.58
2023-05-20T21:24:23.672Z,5.40
2023-05-20T21:29:46.139Z,5.87
2023-05-20T21:35:08.512Z,6.50
2023-05-20T21:40:31.804Z,6.22
2023-05-20T21:45:54.182Z,6.60
2023-05-20T21:51:16.527Z,6.58
2023-05-20T21:56:39.551Z,6.42
2023-05-20T22:02:02.109Z,7.05
2023-05-20T22:07:25.098Z,6.50
2023-05-20T22:12:51.239Z,5.87
2023-05-20T22:18:15.099Z,6.12
2023-05-20T22:23:38.196Z,6.72
2023-05-20T22:29:00.757Z,6.85
2023-05-20T22:34:23.127Z,7.55
2023-05-20T22:39:46.390Z,7.58
2023-05-20T22:45:08.739Z,8.35
2023-05-20T22:50:32.895Z,8.68
2023-05-20T22:55:56.167Z,7.15
2023-05-20T23:01:19.370Z,6.85
2023-05-20T23:06:41.780Z,7.45
2023-05-20T23:12:04.621Z,7.95
2023-05-20T23:17:27.039Z,8.70
2023-05-20T23:22:51.673Z,8.80
2023-05-20T23:28:13.974Z,8.25
2023-05-20T23:33:36.361Z,9.00
2023-05-20T23:38:58.893Z,8.23
2023-05-20T23:44:21.491Z,8.65
2023-05-20T23:49:47.860Z,7.97
2023-05-20T23:55:10.776Z,8.30
